Time;durP1;ratioP1;P1;durP2;ratioP2;P2;SDS_P1;SDS_P2;PMS_P1;PMS_P2;Temp;Humidity;BMP_temperature;BMP_pressure;BME280_temperature;BME280_humidity;BME280_pressure;Samples;Min_cycle;Max_cycle;Signal;HPM_P1;HPM_P2
2023/04/11 00:02:01;;;;;;;;;;;;;;;6.18;100.00;100470.72;5033114;28;20301;-75
2023/04/11 00:04:26;;;;;;;;;;;;;;;6.15;100.00;100460.25;5035435;28;19917;-76
2023/04/11 00:06:52;;;;;;;;;;;;;;;6.11;100.00;100460.41;5002723;28;20256;-74
2023/04/11 00:09:17;;;;;;;;;;;;;;;6.07;100.00;100450.44;5019152;28;19913;-74
2023/04/11 00:11:42;;;;;;;;;;;;;;;6.04;100.00;100454.97;5037009;28;20375;-74
2023/04/11 00:14:08;;;;;;;;;;;;;;;6.02;100.00;100448.19;5037656;28;20403;-76
2023/04/11 00:16:33;;;;;;;;;;;;;;;6.00;100.00;100442.94;5037486;28;20346;-73
2023/04/11 00:18:59;;;;;;;;;;;;;;;5.97;100.00;100446.72;5037173;28;19913;-75
2023/04/11 00:21:24;;;;;;;;;;;;;;;5.96;100.00;100450.00;5036821;28;20362;-76
2023/04/11 00:23:51;;;;;;;;;;;;;;;5.92;100.00;100447.28;5036869;28;19913;-75
2023/04/11 00:26:16;;;;;;;;;;;;;;;5.90;100.00;100434.81;5036529;28;20323;-74
2023/04/11 00:28:41;;;;;;;;;;;;;;;5.88;100.00;100429.63;5018975;28;20398;-73
2023/04/11 00:31:07;;;;;;;;;;;;;;;5.86;100.00;100431.31;5036247;28;19917;-75
2023/04/11 00:33:32;;;;;;;;;;;;;;;5.81;100.00;100433.47;5036280;28;19913;-73
2023/04/11 00:35:57;;;;;;;;;;;;;;;5.79;100.00;100430.28;5036702;28;20019;-73
2023/04/11 00:38:22;;;;;;;;;;;;;;;5.76;100.00;100430.41;5036497;28;20359;-75
2023/04/11 00:40:48;;;;;;;;;;;;;;;5.73;100.00;100426.47;5036638;28;19917;-75
2023/04/11 00:43:13;;;;;;;;;;;;;;;5.73;100.00;100422.84;5036337;28;19909;-76
2023/04/11 00:45:38;;;;;;;;;;;;;;;5.73;100.00;100417.16;5035920;28;19999;-76
2023/04/11 00:48:04;;;;;;;;;;;;;;;5.70;100.00;100424.53;5001986;28;19920;-76
2023/04/11 00:50:29;;;;;;;;;;;;;;;5.68;100.00;100421.38;5018298;28;19924;-75
2023/04/11 00:52:54;;;;;;;;;;;;;;;5.68;100.00;100417.75;5035996;28;20019;-75
2023/04/11 00:55:20;;;;;;;;;;;;;;;5.66;100.00;100421.03;5018162;28;19920;-75
2023/04/11 00:57:45;;;;;;;;;;;;;;;5.67;100.00;100416.16;5018414;28;19921;-75
2023/04/11 01:00:11;;;;;;;;;;;;;;;5.65;100.00;100413.78;5036380;28;19913;-75
2023/04/11 01:02:37;;;;;;;;;;;;;;;5.65;100.00;100401.63;5036123;28;19952;-77
2023/04/11 01:05:06;;;;;;;;;;;;;;;5.64;100.00;100397.25;5035945;28;19920;-75
2023/04/11 01:07:33;;;;;;;;;;;;;;;5.65;100.00;100390.28;5001612;28;20285;-74
2023/04/11 01:09:59;;;;;;;;;;;;;;;5.63;100.00;100387.94;5049057;28;20309;-75
2023/04/11 01:12:24;;;;;;;;;;;;;;;5.63;100.00;100389.97;5035640;28;20382;-75
2023/04/11 01:14:49;;;;;;;;;;;;;;;5.64;100.00;100392.38;5034599;28;19920;-76
2023/04/11 01:17:14;;;;;;;;;;;;;;;5.63;100.00;100395.66;5053070;28;19912;-74
2023/04/11 01:19:40;;;;;;;;;;;;;;;5.58;100.00;100391.34;5053604;28;19963;-75
2023/04/11 01:22:05;;;;;;;;;;;;;;;5.57;100.00;100388.97;5053622;28;19913;-76
2023/04/11 01:24:30;;;;;;;;;;;;;;;5.52;100.00;100393.16;5035512;28;19939;-76
2023/04/11 01:26:56;;;;;;;;;;;;;;;5.52;100.00;100389.53;5036313;28;19919;-76
2023/04/11 01:29:21;;;;;;;;;;;;;;;5.51;100.00;100379.44;5035522;28;20255;-74
2023/04/11 01:31:46;;;;;;;;;;;;;;;5.50;100.00;100381.47;5053137;28;20293;-75
2023/04/11 01:34:13;;;;;;;;;;;;;;;5.49;100.00;100374.25;5053285;28;19966;-75
2023/04/11 01:36:38;;;;;;;;;;;;;;;5.50;100.00;100366.53;5053853;28;20004;-76
2023/04/11 01:39:04;;;;;;;;;;;;;;;5.48;100.00;100364.16;5053556;28;20011;-75
2023/04/11 01:41:29;;;;;;;;;;;;;;;5.48;100.00;100358.50;5054125;28;19912;-77
2023/04/11 01:43:54;;;;;;;;;;;;;;;5.46;100.00;100349.66;5037848;28;19913;-74
2023/04/11 01:46:20;;;;;;;;;;;;;;;5.44;100.00;100346.50;5040034;28;19912;-76
2023/04/11 01:48:45;;;;;;;;;;;;;;;5.43;100.00;100347.75;5023585;28;20389;-75
2023/04/11 01:51:10;;;;;;;;;;;;;;;5.40;100.00;100337.28;5057525;28;19916;-75
2023/04/11 01:53:36;;;;;;;;;;;;;;;5.38;100.00;100339.81;5055261;28;19916;-75
2023/04/11 01:56:01;;;;;;;;;;;;;;;5.35;100.00;100337.91;5055485;28;19913;-75
2023/04/11 01:58:26;;;;;;;;;;;;;;;5.35;100.00;100332.22;5037122;28;19967;-75
2023/04/11 02:00:51;;;;;;;;;;;;;;;5.32;100.00;100322.59;5054783;28;19913;-75
2023/04/11 02:03:19;;;;;;;;;;;;;;;5.29;100.00;100322.72;5054605;28;20426;-75
2023/04/11 02:05:44;;;;;;;;;;;;;;;5.28;100.00;100315.47;5036796;28;19952;-76
2023/04/11 02:08:10;;;;;;;;;;;;;;;5.25;100.00;100317.16;5054372;28;19963;-75
2023/04/11 02:10:35;;;;;;;;;;;;;;;5.25;100.00;100311.50;5036650;28;19916;-76
2023/04/11 02:13:01;;;;;;;;;;;;;;;5.25;100.00;100311.50;5054652;28;19920;-74
2023/04/11 02:15:26;;;;;;;;;;;;;;;5.24;100.00;100295.75;5054546;28;20368;-75
2023/04/11 02:17:52;;;;;;;;;;;;;;;5.26;100.00;100298.13;5054153;28;19920;-75
2023/04/11 02:20:20;;;;;;;;;;;;;;;5.25;100.00;100286.00;5054231;28;20318;-75
2023/04/11 02:22:45;;;;;;;;;;;;;;;5.25;100.00;100286.00;5020530;28;19913;-75
2023/04/11 02:25:10;;;;;;;;;;;;;;;5.25;100.00;100283.16;5036530;28;19924;-75
2023/04/11 02:27:35;;;;;;;;;;;;;;;5.26;100.00;100283.97;5054084;28;20301;-75
2023/04/11 02:30:04;;;;;;;;;;;;;;;5.21;100.00;100276.84;5054310;28;19913;-75
2023/04/11 02:32:31;;;;;;;;;;;;;;;5.18;100.00;100269.25;5054144;28;19916;-76
2023/04/11 02:34:56;;;;;;;;;;;;;;;5.15;100.00;100261.69;5036103;28;20015;-76
2023/04/11 02:37:24;;;;;;;;;;;;;;;5.11;100.00;100268.69;5054167;28;19967;-75
2023/04/11 02:39:50;;;;;;;;;;;;;;;5.08;100.00;100266.78;5053996;28;19952;-75
2023/04/11 02:42:15;;;;;;;;;;;;;;;5.06;100.00;100272.09;5054220;28;19920;-74
2023/04/11 02:44:40;;;;;;;;;;;;;;;5.00;100.00;100266.25;5032378;28;20337;-75
2023/04/11 02:47:05;;;;;;;;;;;;;;;4.97;100.00;100264.31;5033913;28;19913;-76
2023/04/11 02:49:31;;;;;;;;;;;;;;;4.90;100.00;100271.03;5033899;28;19913;-76
2023/04/11 02:51:56;;;;;;;;;;;;;;;4.88;100.00;100269.88;5033521;28;20368;-76
2023/04/11 02:54:21;;;;;;;;;;;;;;;4.87;100.00;100269.09;5033700;28;20291;-75
2023/04/11 02:56:47;;;;;;;;;;;;;;;4.85;100.00;100265.94;5032361;28;19923;-75
2023/04/11 02:59:12;;;;;;;;;;;;;;;4.84;100.00;100252.22;5033692;28;19999;-75
2023/04/11 03:01:37;;;;;;;;;;;;;;;4.81;100.00;100256.75;5016004;28;19936;-74
2023/04/11 03:04:02;;;;;;;;;;;;;;;4.81;100.00;100253.13;5032388;28;19913;-75
2023/04/11 03:06:28;;;;;;;;;;;;;;;4.76;100.00;100245.22;5032196;28;20006;-75
2023/04/11 03:08:53;;;;;;;;;;;;;;;4.75;100.00;100246.47;5033447;28;19920;-76
2023/04/11 03:11:18;;;;;;;;;;;;;;;4.76;100.00;100245.22;5034038;28;19924;-75
2023/04/11 03:13:44;;;;;;;;;;;;;;;4.76;100.00;100243.16;5033549;28;19913;-75
2023/04/11 03:16:12;;;;;;;;;;;;;;;4.77;100.00;100239.09;5033428;28;19913;-76
2023/04/11 03:18:38;;;;;;;;;;;;;;;4.79;100.00;100232.97;5033333;28;19986;-74
2023/04/11 03:21:03;;;;;;;;;;;;;;;4.80;100.00;100234.56;5033355;28;19940;-76
2023/04/11 03:23:28;;;;;;;;;;;;;;;4.81;100.00;100222.78;5033552;28;19979;-76
2023/04/11 03:25:54;;;;;;;;;;;;;;;4.83;100.00;100219.50;5032017;28;19940;-74
2023/04/11 03:28:19;;;;;;;;;;;;;;;4.86;100.00;100222.19;5033491;28;19959;-76
2023/04/11 03:30:45;;;;;;;;;;;;;;;4.83;100.00;100220.28;5031838;28;20362;-75
2023/04/11 03:33:10;;;;;;;;;;;;;;;4.82;100.00;100218.69;5033125;28;20363;-76
2023/04/11 03:35:36;;;;;;;;;;;;;;;4.81;100.00;100216.31;5033290;28;19958;-75
2023/04/11 03:38:01;;;;;;;;;;;;;;;4.84;100.00;100210.56;5032521;28;19995;-75
2023/04/11 03:40:26;;;;;;;;;;;;;;;4.90;100.00;100213.59;5033405;28;20393;-74
2023/04/11 03:42:52;;;;;;;;;;;;;;;4.89;100.00;100209.97;5033405;28;19913;-75
2023/04/11 03:45:17;;;;;;;;;;;;;;;4.91;100.00;100192.50;5031704;28;19932;-76
2023/04/11 03:47:42;;;;;;;;;;;;;;;4.95;100.00;100193.22;5033138;28;19913;-76
2023/04/11 03:50:08;;;;;;;;;;;;;;;4.97;100.00;100189.91;5015467;28;19913;-76
2023/04/11 03:52:33;;;;;;;;;;;;;;;5.01;100.00;100182.06;5032866;28;19924;-75
2023/04/11 03:54:59;;;;;;;;;;;;;;;5.05;100.00;100186.38;5032070;28;19936;-76
2023/04/11 03:57:25;;;;;;;;;;;;;;;5.10;100.00;100190.66;5015483;28;19920;-76
2023/04/11 03:59:51;;;;;;;;;;;;;;;5.13;100.00;100182.03;5031908;28;20389;-75
2023/04/11 04:02:16;;;;;;;;;;;;;;;5.18;100.00;100183.50;5033405;28;19913;-75
2023/04/11 04:04:45;;;;;;;;;;;;;;;5.18;100.00;100181.47;5033056;28;19956;-74
2023/04/11 04:07:10;;;;;;;;;;;;;;;5.25;100.00;100183.25;5032908;28;19913;-75
2023/04/11 04:09:36;;;;;;;;;;;;;;;5.30;100.00;100177.75;5032869;28;20319;-75
2023/04/11 04:12:01;;;;;;;;;;;;;;;5.31;100.00;100173.69;5032992;28;19920;-76
2023/04/11 04:14:27;;;;;;;;;;;;;;;5.35;100.00;100163.00;5032732;28;19939;-75
2023/04/11 04:16:53;;;;;;;;;;;;;;;5.38;100.00;100158.47;5033378;28;19913;-76
2023/04/11 04:19:19;;;;;;;;;;;;;;;5.40;100.00;100160.88;5032994;28;20072;-75
2023/04/11 04:21:45;;;;;;;;;;;;;;;5.40;100.00;100160.88;5031215;28;20347;-74
2023/04/11 04:24:11;;;;;;;;;;;;;;;5.42;100.00;100159.13;5032562;28;19936;-75
2023/04/11 04:26:40;;;;;;;;;;;;;;;5.38;100.00;100167.78;5033112;28;19920;-76
2023/04/11 04:29:08;;;;;;;;;;;;;;;5.43;100.00;100168.44;5031878;28;19913;-76
2023/04/11 04:31:35;;;;;;;;;;;;;;;5.46;100.00;100173.97;5032772;28;19960;-75
2023/04/11 04:34:20;;;;;;;;;;;;;;;5.48;100.00;100173.50;5031524;28;20247;-76
2023/04/11 04:37:00;;;;;;;;;;;;;;;5.49;100.00;100170.22;5031496;28;19913;-76
2023/04/11 04:39:28;;;;;;;;;;;;;;;5.55;100.00;100164.75;5033013;28;20255;-75
2023/04/11 04:41:59;;;;;;;;;;;;;;;5.60;100.00;100162.09;5032037;28;19963;-75
2023/04/11 04:44:25;;;;;;;;;;;;;;;5.65;100.00;100149.34;5038275;28;19921;-76
2023/04/11 04:46:54;;;;;;;;;;;;;;;5.73;100.00;100133.69;5052415;28;19924;-74
2023/04/11 04:49:19;;;;;;;;;;;;;;;5.82;100.00;100128.06;5035491;28;20429;-75
2023/04/11 04:51:46;;;;;;;;;;;;;;;5.95;100.00;100128.75;5056218;28;19920;-75
2023/04/11 04:54:14;;;;;;;;;;;;;;;6.12;100.00;100129.31;5038593;28;20003;-75
2023/04/11 04:56:41;;;;;;;;;;;;;;;6.27;100.00;100127.47;5055693;28;19916;-78
2023/04/11 04:59:07;;;;;;;;;;;;;;;6.41;100.00;100129.75;5056109;28;19912;-73
2023/04/11 05:01:33;;;;;;;;;;;;;;;6.51;100.00;100122.03;5056111;28;19912;-75
2023/04/11 05:04:00;;;;;;;;;;;;;;;6.57;100.00;100132.31;5055429;28;20042;-72
2023/04/11 05:06:30;;;;;;;;;;;;;;;6.58;100.00;100133.88;5056128;28;20354;-74
2023/04/11 05:08:57;;;;;;;;;;;;;;;6.56;100.00;100130.72;5055766;28;19913;-74
2023/04/11 05:11:22;;;;;;;;;;;;;;;6.57;100.00;100129.47;5038160;28;19944;-77
2023/04/11 05:13:49;;;;;;;;;;;;;;;6.59;100.00;100129.00;5039086;28;20374;-75
2023/04/11 05:16:15;;;;;;;;;;;;;;;6.60;100.00;100125.69;5035316;28;19971;-75
2023/04/11 05:18:41;;;;;;;;;;;;;;;6.61;100.00;100117.97;5035683;28;19996;-75
2023/04/11 05:21:09;;;;;;;;;;;;;;;6.59;100.00;100107.06;5017864;28;19955;-75
2023/04/11 05:23:36;;;;;;;;;;;;;;;6.62;100.00;100102.50;5042155;28;20004;-76
2023/04/11 05:26:04;;;;;;;;;;;;;;;6.66;100.00;100094.63;5071507;28;20007;-76
2023/04/11 05:28:30;;;;;;;;;;;;;;;6.64;100.00;100086.56;5074797;28;19916;-77
2023/04/11 05:30:56;;;;;;;;;;;;;;;6.63;100.00;100067.97;5049403;28;19959;-78
2023/04/11 05:33:21;;;;;;;;;;;;;;;6.63;100.00;100070.78;5043583;28;19913;-76
2023/04/11 05:35:48;;;;;;;;;;;;;;;6.64;100.00;100063.88;5031320;28;20408;-75
2023/04/11 05:38:13;;;;;;;;;;;;;;;6.66;100.00;100061.34;5053826;28;19963;-76
2023/04/11 05:40:38;;;;;;;;;;;;;;;6.65;100.00;100054.09;5020420;28;20377;-78
2023/04/11 05:43:04;;;;;;;;;;;;;;;6.68;100.00;100043.84;5052381;28;20087;-75
2023/04/11 05:45:29;;;;;;;;;;;;;;;6.76;100.00;100030.91;5052502;28;19921;-77
2023/04/11 05:47:55;;;;;;;;;;;;;;;6.82;100.00;100023.34;5052966;28;19912;-75
2023/04/11 05:50:20;;;;;;;;;;;;;;;6.88;100.00;100027.09;5034760;28;19913;-76
2023/04/11 05:52:46;;;;;;;;;;;;;;;6.96;100.00;100021.91;5047304;28;19923;-76
2023/04/11 05:55:11;;;;;;;;;;;;;;;7.03;100.00;99998.84;5042569;28;20016;-76
2023/04/11 05:57:36;;;;;;;;;;;;;;;7.05;100.00;99999.97;5044870;28;19917;-78
2023/04/11 06:00:07;;;;;;;;;;;;;;;7.11;100.00;99988.75;5050948;28;19909;-78
2023/04/11 06:02:32;;;;;;;;;;;;;;;7.19;100.00;99989.97;5044246;28;19975;-74
2023/04/11 06:04:58;;;;;;;;;;;;;;;7.26;100.00;99988.84;5046249;28;19928;-76
2023/04/11 06:07:23;;;;;;;;;;;;;;;7.32;100.00;99987.75;5038341;28;19913;-75
2023/04/11 06:09:50;;;;;;;;;;;;;;;7.39;100.00;99972.38;5034296;28;19917;-71
2023/04/11 06:12:15;;;;;;;;;;;;;;;7.45;100.00;99973.31;5015427;28;19923;-71
2023/04/11 06:15:02;;;;;;;;;;;;;;;7.59;100.00;99975.47;5033376;28;19925;-71
2023/04/11 06:17:27;;;;;;;;;;;;;;;7.73;100.00;99982.50;5033288;28;19917;-73
2023/04/11 06:19:54;;;;;;;;;;;;;;;7.77;100.00;99983.91;5015947;28;20412;-72
2023/04/11 06:22:19;;;;;;;;;;;;;;;7.73;100.00;99976.81;5040753;28;19917;-77
2023/04/11 06:24:46;;;;;;;;;;;;;;;7.78;100.00;99967.63;5054658;28;20067;-78
2023/04/11 06:27:14;;;;;;;;;;;;;;;7.87;100.00;99968.38;5036577;28;19959;-76
2023/04/11 06:29:42;;;;;;;;;;;;;;;7.97;100.00;99961.34;5054184;28;20345;-77
2023/04/11 06:32:10;;;;;;;;;;;;;;;8.05;100.00;99973.19;5054576;28;19927;-77
2023/04/11 06:34:35;;;;;;;;;;;;;;;8.06;100.00;99960.53;5036002;28;19916;-77
2023/04/11 06:37:01;;;;;;;;;;;;;;;8.11;100.00;99968.41;5054262;28;19919;-78
2023/04/11 06:39:29;;;;;;;;;;;;;;;8.17;100.00;99962.84;5053896;28;20003;-77
2023/04/11 06:41:55;;;;;;;;;;;;;;;8.24;100.00;99956.78;5053356;28;19913;-78
2023/04/11 06:44:21;;;;;;;;;;;;;;;8.27;100.00;99959.44;5053669;28;19924;-77
2023/04/11 06:46:47;;;;;;;;;;;;;;;8.28;100.00;99958.19;5053986;28;19919;-78
2023/04/11 06:49:14;;;;;;;;;;;;;;;8.26;100.00;99960.72;5053774;28;20262;-78
2023/04/11 06:51:40;;;;;;;;;;;;;;;8.30;100.00;99946.31;5053476;28;19924;-77
2023/04/11 06:54:06;;;;;;;;;;;;;;;8.29;100.00;99936.19;5053749;28;19913;-80
2023/04/11 06:56:33;;;;;;;;;;;;;;;8.31;100.00;99936.50;5054402;28;19912;-79
2023/04/11 06:58:58;;;;;;;;;;;;;;;8.35;100.00;99931.41;5052247;28;20007;-84
2023/04/11 07:01:32;;;;;;;;;;;;;;;8.37;100.00;99934.53;5035980;28;19956;-80
2023/04/11 07:03:58;;;;;;;;;;;;;;;8.43;100.00;99928.97;5053916;28;19913;-78
2023/04/11 07:06:25;;;;;;;;;;;;;;;8.46;100.00;99923.06;5053552;28;19913;-79
2023/04/11 07:08:51;;;;;;;;;;;;;;;8.46;100.00;99933.69;5053553;28;19935;-79
2023/04/11 07:11:17;;;;;;;;;;;;;;;8.53;100.00;99928.41;5051613;28;20445;-79
2023/04/11 07:13:42;;;;;;;;;;;;;;;8.55;100.00;99925.06;5035928;28;20382;-81
2023/04/11 07:16:09;;;;;;;;;;;;;;;8.55;100.00;99923.00;5054131;28;19959;-79
2023/04/11 07:18:35;;;;;;;;;;;;;;;8.56;100.00;99926.66;5053945;28;19981;-79
2023/04/11 07:21:00;;;;;;;;;;;;;;;8.60;100.00;99928.03;5054288;28;20369;-80
2023/04/11 07:23:27;;;;;;;;;;;;;;;8.64;100.00;99924.97;5053460;28;19920;-81
2023/04/11 07:25:54;;;;;;;;;;;;;;;8.70;100.00;99926.66;5036351;28;19919;-79
2023/04/11 07:28:21;;;;;;;;;;;;;;;8.81;100.00;99924.00;5051892;28;19916;-77
2023/04/11 07:30:47;;;;;;;;;;;;;;;8.84;100.00;99930.81;5053697;28;19917;-80
2023/04/11 07:33:15;;;;;;;;;;;;;;;8.94;100.00;99932.28;5053567;28;19920;-79
2023/04/11 07:35:41;;;;;;;;;;;;;;;9.06;100.00;99928.34;5053977;28;19917;-79
2023/04/11 07:38:09;;;;;;;;;;;;;;;9.22;100.00;99922.13;5054312;28;20309;-78
2023/04/11 07:40:34;;;;;;;;;;;;;;;9.37;100.00;99921.34;5054058;28;19913;-78
2023/04/11 07:43:00;;;;;;;;;;;;;;;9.51;100.00;99917.66;5053489;28;20263;-77
2023/04/11 07:45:27;;;;;;;;;;;;;;;9.63;100.00;99905.16;5053262;28;20353;-79
2023/04/11 07:47:52;;;;;;;;;;;;;;;9.72;100.00;99905.03;5052707;28;19947;-79
2023/04/11 07:50:18;;;;;;;;;;;;;;;9.87;100.00;99900.09;5035784;28;19943;-80
2023/04/11 07:52:45;;;;;;;;;;;;;;;10.02;100.00;99892.25;5035168;28;19921;-76
2023/04/11 07:55:11;;;;;;;;;;;;;;;10.18;100.00;99890.09;5052778;28;19971;-75
2023/04/11 07:57:37;;;;;;;;;;;;;;;10.34;100.00;99878.84;5053397;28;19963;-79
2023/04/11 08:00:04;;;;;;;;;;;;;;;10.46;100.00;99874.06;5052984;28;20438;-78
2023/04/11 08:02:31;;;;;;;;;;;;;;;10.64;100.00;99870.88;5053011;28;19917;-75
2023/04/11 08:05:02;;;;;;;;;;;;;;;10.82;100.00;99875.47;5034890;28;19916;-76
2023/04/11 08:07:28;;;;;;;;;;;;;;;10.91;100.00;99864.66;5052636;28;19913;-77
2023/04/11 08:09:54;;;;;;;;;;;;;;;10.98;100.00;99857.66;5052717;28;19909;-77
2023/04/11 08:12:21;;;;;;;;;;;;;;;11.19;100.00;99852.69;5052237;28;20350;-78
2023/04/11 08:14:46;;;;;;;;;;;;;;;11.44;100.00;99854.69;5051729;28;19920;-79
2023/04/11 08:17:13;;;;;;;;;;;;;;;11.60;100.00;99856.09;5053172;28;20265;-79
2023/04/11 08:19:40;;;;;;;;;;;;;;;11.78;100.00;99853.59;5052466;28;20338;-79
2023/04/11 08:22:05;;;;;;;;;;;;;;;11.96;100.00;99854.47;5051099;28;19912;-78
2023/04/11 08:24:31;;;;;;;;;;;;;;;12.07;100.00;99851.63;5053631;28;19936;-79
2023/04/11 08:27:02;;;;;;;;;;;;;;;12.09;100.00;99851.91;5056626;28;19993;-79
2023/04/11 08:29:29;;;;;;;;;;;;;;;12.17;100.00;99850.09;5056863;28;19917;-79
2023/04/11 08:31:56;;;;;;;;;;;;;;;12.35;100.00;99835.34;5056331;28;20001;-77
2023/04/11 08:34:21;;;;;;;;;;;;;;;12.14;100.00;99845.41;5055681;28;19912;-78
2023/04/11 08:36:48;;;;;;;;;;;;;;;12.12;100.00;99839.41;5056273;28;19967;-78
2023/04/11 08:39:14;;;;;;;;;;;;;;;12.22;100.00;99826.44;5056078;28;20417;-78
2023/04/11 08:41:41;;;;;;;;;;;;;;;12.40;100.00;99825.22;5056088;28;19913;-78
2023/04/11 08:44:09;;;;;;;;;;;;;;;12.73;100.00;99813.03;5055785;28;20293;-77
2023/04/11 08:46:39;;;;;;;;;;;;;;;12.93;100.00;99819.28;5038452;28;19916;-78
2023/04/11 08:49:04;;;;;;;;;;;;;;;13.29;100.00;99810.91;5038631;28;19935;-78
2023/04/11 08:51:30;;;;;;;;;;;;;;;13.49;100.00;99807.75;5056025;28;20441;-78
2023/04/11 08:53:58;;;;;;;;;;;;;;;13.65;100.00;99801.19;5056340;28;19935;-78
2023/04/11 08:56:23;;;;;;;;;;;;;;;13.86;100.00;99808.19;5038313;28;19962;-78
2023/04/11 08:58:49;;;;;;;;;;;;;;;14.00;100.00;99800.53;5055331;28;19913;-78
2023/04/11 09:01:24;;;;;;;;;;;;;;;14.07;100.00;99811.50;5054035;28;19913;-79
2023/04/11 09:03:51;;;;;;;;;;;;;;;14.32;100.00;99804.56;5038550;28;20282;-78
2023/04/11 09:06:16;;;;;;;;;;;;;;;14.53;100.00;99793.44;5038125;28;19917;-78
2023/04/11 09:08:43;;;;;;;;;;;;;;;14.53;100.00;99793.44;5055719;28;19913;-78
2023/04/11 09:11:08;;;;;;;;;;;;;;;14.50;100.00;99790.84;5056067;28;19920;-78
2023/04/11 09:13:33;;;;;;;;;;;;;;;14.86;100.00;99777.28;5055924;28;20251;-78
2023/04/11 09:16:05;;;;;;;;;;;;;;;15.35;100.00;99781.00;5054636;28;20003;-78
2023/04/11 09:18:32;;;;;;;;;;;;;;;15.99;100.00;99788.69;5054421;28;19913;-79
2023/04/11 09:21:01;;;;;;;;;;;;;;;16.41;100.00;99780.50;5054204;28;19959;-78
2023/04/11 09:23:26;;;;;;;;;;;;;;;16.85;100.00;99790.59;5037348;28;19912;-77
2023/04/11 09:25:51;;;;;;;;;;;;;;;16.89;93.92;99782.41;5055249;28;19920;-78
2023/04/11 09:28:17;;;;;;;;;;;;;;;16.73;94.25;99777.69;5037019;28;19916;-78
2023/04/11 09:30:52;;;;;;;;;;;;;;;16.88;96.77;99760.66;5054035;28;19916;-78
2023/04/11 09:33:20;;;;;;;;;;;;;;;17.08;94.16;99762.91;5054202;28;19912;-76
2023/04/11 09:35:46;;;;;;;;;;;;;;;16.97;91.81;99758.13;5052726;28;19920;-77
2023/04/11 09:38:11;;;;;;;;;;;;;;;16.92;94.82;99747.44;5052996;28;19913;-76
2023/04/11 09:40:43;;;;;;;;;;;;;;;17.09;95.08;99741.38;5053305;28;19962;-79
2023/04/11 09:43:08;;;;;;;;;;;;;;;17.27;94.97;99743.41;5054126;28;19923;-79
2023/04/11 09:45:33;;;;;;;;;;;;;;;17.48;90.83;99748.56;5055346;28;20009;-78
2023/04/11 09:47:58;;;;;;;;;;;;;;;17.53;88.34;99739.78;5055177;28;19936;-79
2023/04/11 09:50:25;;;;;;;;;;;;;;;17.57;85.42;99730.78;5055524;28;20306;-79
2023/04/11 09:52:51;;;;;;;;;;;;;;;17.49;78.43;99739.31;5037154;28;19951;-78
2023/04/11 09:55:20;;;;;;;;;;;;;;;17.44;79.15;99743.09;5055917;28;20331;-79
2023/04/11 09:57:47;;;;;;;;;;;;;;;17.31;79.36;99738.06;5055065;28;20396;-78
2023/04/11 10:00:15;;;;;;;;;;;;;;;17.32;79.11;99738.84;5055579;28;20011;-79
2023/04/11 10:02:41;;;;;;;;;;;;;;;17.41;80.77;99736.31;5055268;28;19920;-79
2023/04/11 10:05:07;;;;;;;;;;;;;;;17.69;80.93;99738.66;5055607;28;19913;-79
2023/04/11 10:07:33;;;;;;;;;;;;;;;17.58;79.21;99747.56;5036928;28;19913;-77
2023/04/11 10:09:58;;;;;;;;;;;;;;;17.34;79.64;99751.41;5055616;28;19992;-77
2023/04/11 10:12:30;;;;;;;;;;;;;;;17.06;80.50;99753.25;5038212;28;19916;-78
2023/04/11 10:14:55;;;;;;;;;;;;;;;16.83;82.44;99755.75;5050372;28;19920;-78
2023/04/11 10:17:21;;;;;;;;;;;;;;;16.86;85.25;99757.53;5077497;28;19909;-77
2023/04/11 10:19:47;;;;;;;;;;;;;;;16.90;84.95;99755.09;5076977;28;19923;-78
2023/04/11 10:22:31;;;;;;;;;;;;;;;16.83;85.25;99762.31;5055855;28;19908;-77
2023/04/11 10:25:16;;;;;;;;;;;;;;;16.88;87.00;99761.44;5074561;28;19917;-80
2023/04/11 10:27:44;;;;;;;;;;;;;;;16.82;87.23;99769.41;5074195;28;19940;-79
2023/04/11 10:30:10;;;;;;;;;;;;;;;16.72;88.00;99765.38;5069610;28;19924;-79
2023/04/11 10:32:35;;;;;;;;;;;;;;;16.65;87.86;99760.22;5042634;28;20351;-79
2023/04/11 10:35:00;;;;;;;;;;;;;;;16.44;87.05;99757.13;5038333;28;19920;-79
2023/04/11 10:37:29;;;;;;;;;;;;;;;16.41;84.50;99763.19;5055629;28;20443;-78
2023/04/11 10:39:56;;;;;;;;;;;;;;;16.44;85.70;99759.22;5055414;28;19913;-78
2023/04/11 10:42:25;;;;;;;;;;;;;;;16.70;85.45;99762.22;5056192;28;19913;-77
2023/04/11 10:45:09;;;;;;;;;;;;;;;16.65;79.93;99765.22;5056394;28;19982;-76
2023/04/11 10:47:34;;;;;;;;;;;;;;;16.47;80.30;99758.13;5055436;28;19913;-80
2023/04/11 10:50:00;;;;;;;;;;;;;;;16.41;83.30;99763.19;5054530;28;20281;-78
2023/04/11 10:52:26;;;;;;;;;;;;;;;16.40;84.07;99755.88;5054310;28;19917;-77
2023/04/11 10:54:51;;;;;;;;;;;;;;;16.11;82.09;99760.47;5054332;28;19920;-78
2023/04/11 10:57:17;;;;;;;;;;;;;;;15.77;80.51;99777.41;5055345;28;20301;-78
2023/04/11 10:59:48;;;;;;;;;;;;;;;15.38;78.60;99777.03;5054981;28;19963;-78
2023/04/11 11:02:13;;;;;;;;;;;;;;;15.04;85.01;99785.22;5054445;28;19958;-79
2023/04/11 11:04:39;;;;;;;;;;;;;;;14.87;86.03;99778.84;5035442;28;19913;-77
2023/04/11 11:07:05;;;;;;;;;;;;;;;14.36;87.38;99782.06;5054660;28;20281;-78
2023/04/11 11:09:31;;;;;;;;;;;;;;;14.04;91.51;99777.28;5055319;28;19920;-78
2023/04/11 11:12:09;;;;;;;;;;;;;;;13.67;94.77;99787.09;5038125;28;19917;-76
2023/04/11 11:14:35;;;;;;;;;;;;;;;13.29;100.00;99785.09;5057409;28;20281;-77
2023/04/11 11:17:01;;;;;;;;;;;;;;;12.98;100.00;99792.69;5038825;28;19913;-79
2023/04/11 11:19:27;;;;;;;;;;;;;;;12.56;100.00;99790.06;5056732;28;19919;-79
2023/04/11 11:21:52;;;;;;;;;;;;;;;12.20;100.00;99792.59;5056362;28;19960;-78
2023/04/11 11:24:24;;;;;;;;;;;;;;;11.79;100.00;99791.41;5036700;28;19917;-77
2023/04/11 11:26:50;;;;;;;;;;;;;;;11.16;100.00;99790.78;5055156;28;19917;-79
2023/04/11 11:29:18;;;;;;;;;;;;;;;10.79;100.00;99797.25;5054062;28;20435;-78
2023/04/11 11:31:46;;;;;;;;;;;;;;;10.67;100.00;99798.44;5036523;28;19917;-78
2023/04/11 11:34:26;;;;;;;;;;;;;;;10.75;100.00;99810.97;5035862;28;20003;-77
2023/04/11 11:36:52;;;;;;;;;;;;;;;10.55;100.00;99820.41;5052659;28;19912;-76
2023/04/11 11:39:17;;;;;;;;;;;;;;;10.41;100.00;99821.31;5053620;28;19931;-76
2023/04/11 11:41:42;;;;;;;;;;;;;;;10.02;100.00;99837.22;5035514;28;19913;-77
2023/04/11 11:44:19;;;;;;;;;;;;;;;9.71;100.00;99837.81;5052665;28;19921;-78
2023/04/11 11:47:07;;;;;;;;;;;;;;;9.36;100.00;99842.78;5035526;28;20011;-67
2023/04/11 11:49:46;;;;;;;;;;;;;;;8.91;100.00;99844.13;5053045;28;20304;-71
2023/04/11 11:52:32;;;;;;;;;;;;;;;8.70;100.00;99851.81;5034525;28;19983;-70
2023/04/11 11:54:59;;;;;;;;;;;;;;;8.65;100.00;99861.06;5051704;28;20027;-69
2023/04/11 11:57:26;;;;;;;;;;;;;;;8.47;100.00;99856.31;5052985;28;19913;-69
2023/04/11 11:59:55;;;;;;;;;;;;;;;8.36;100.00;99873.97;5054624;28;19912;-72
2023/04/11 12:02:26;;;;;;;;;;;;;;;8.45;100.00;99869.47;5039178;28;19980;-72
2023/04/11 12:04:58;;;;;;;;;;;;;;;8.44;100.00;99870.75;5039612;28;19920;-71
2023/04/11 12:07:24;;;;;;;;;;;;;;;8.33;100.00;99872.09;5044565;28;19924;-69
2023/04/11 12:10:01;;;;;;;;;;;;;;;8.13;100.00;99865.44;5038858;28;20293;-71
2023/04/11 12:12:39;;;;;;;;;;;;;;;7.87;100.00;99880.19;5038785;28;20398;-69
2023/04/11 12:15:12;;;;;;;;;;;;;;;7.71;100.00;99886.31;5057267;28;19919;-77
2023/04/11 12:17:41;;;;;;;;;;;;;;;7.51;100.00;99874.75;5057398;28;19913;-77
2023/04/11 12:20:22;;;;;;;;;;;;;;;7.36;100.00;99880.34;5039546;28;19917;-78
2023/04/11 12:22:48;;;;;;;;;;;;;;;7.31;100.00;99888.75;5056987;28;20011;-77
2023/04/11 12:25:15;;;;;;;;;;;;;;;7.25;100.00;99884.97;5057192;28;19982;-79
2023/04/11 12:27:41;;;;;;;;;;;;;;;7.24;100.00;99884.19;5038857;28;20364;-69
2023/04/11 12:30:06;;;;;;;;;;;;;;;7.21;100.00;99884.38;5038977;28;19916;-68
2023/04/11 12:32:32;;;;;;;;;;;;;;;7.27;100.00;99873.94;5056744;28;20443;-73
2023/04/11 12:34:58;;;;;;;;;;;;;;;7.31;100.00;99877.38;5056887;28;19913;-70
2023/04/11 12:37:23;;;;;;;;;;;;;;;7.38;100.00;99877.81;5038674;28;19958;-72
2023/04/11 12:39:50;;;;;;;;;;;;;;;7.41;100.00;99865.50;5056769;28;20007;-72